createdAt,value
2023-08-13T00:00:20.304Z,89.50
2023-08-13T00:01:20.281Z,89.70
2023-08-13T00:02:20.372Z,89.61
2023-08-13T00:03:20.412Z,89.50
2023-08-13T00:04:20.237Z,89.30
2023-08-13T00:05:20.212Z,89.30
2023-08-13T00:06:20.216Z,89.30
2023-08-13T00:07:20.240Z,89.00
2023-08-13T00:08:20.180Z,88.90
2023-08-13T00:09:20.180Z,89.00
2023-08-13T00:10:20.176Z,89.11
2023-08-13T00:11:20.201Z,89.11
2023-08-13T00:12:20.157Z,88.90
2023-08-13T00:13:20.135Z,89.00
2023-08-13T00:14:20.130Z,89.00
2023-08-13T00:15:20.144Z,89.00
2023-08-13T00:16:20.129Z,89.11
2023-08-13T00:17:20.105Z,89.11
2023-08-13T00:18:20.074Z,89.20
2023-08-13T00:19:20.061Z,89.06
2023-08-13T00:20:20.059Z,89.00
2023-08-13T00:21:20.061Z,88.96
2023-08-13T00:22:20.057Z,88.86
2023-08-13T00:23:20.046Z,89.00
2023-08-13T00:24:20.002Z,89.00
2023-08-13T00:25:20.009Z,89.11
2023-08-13T00:26:20.022Z,89.30
2023-08-13T00:27:19.998Z,89.40
2023-08-13T00:28:19.972Z,89.40
2023-08-13T00:29:19.960Z,89.40
2023-08-13T00:30:19.950Z,89.40
2023-08-13T00:31:19.961Z,89.40
2023-08-13T00:32:19.910Z,89.40
2023-08-13T00:33:19.944Z,89.20
2023-08-13T00:34:19.927Z,89.11
2023-08-13T00:35:19.885Z,89.11
2023-08-13T00:36:19.874Z,89.20
2023-08-13T00:37:19.872Z,89.26
2023-08-13T00:38:19.917Z,89.30
2023-08-13T00:39:19.869Z,89.30
2023-08-13T00:40:19.860Z,89.40
2023-08-13T00:41:19.841Z,89.61
2023-08-13T00:42:19.813Z,89.40
2023-08-13T00:43:19.795Z,89.50
2023-08-13T00:44:19.845Z,89.50
2023-08-13T00:45:19.803Z,89.30
2023-08-13T00:46:19.769Z,89.20
2023-08-13T00:47:19.755Z,89.50
2023-08-13T00:48:19.795Z,89.70
2023-08-13T00:49:19.742Z,89.90
2023-08-13T00:50:19.810Z,90.00
2023-08-13T00:51:19.740Z,90.00
2023-08-13T00:52:19.700Z,89.90
2023-08-13T00:53:19.701Z,89.81
2023-08-13T00:54:19.674Z,89.81
2023-08-13T00:55:19.686Z,89.70
2023-08-13T00:56:19.679Z,89.70
2023-08-13T00:57:19.684Z,89.50
2023-08-13T00:58:19.622Z,89.61
2023-08-13T00:59:19.637Z,89.61
2023-08-13T01:00:19.624Z,89.70
2023-08-13T01:01:19.606Z,89.70
2023-08-13T01:02:19.605Z,89.61
2023-08-13T01:03:19.586Z,89.40
2023-08-13T01:04:19.583Z,89.30
2023-08-13T01:05:19.555Z,89.50
2023-08-13T01:06:19.526Z,89.40
2023-08-13T01:07:19.539Z,89.40
2023-08-13T01:08:19.542Z,89.40
2023-08-13T01:09:19.486Z,89.40
2023-08-13T01:10:19.515Z,89.40
2023-08-13T01:11:19.488Z,89.40
2023-08-13T01:12:19.528Z,89.40
2023-08-13T01:13:19.476Z,89.40
2023-08-13T01:14:19.455Z,89.30
2023-08-13T01:15:19.472Z,89.11
2023-08-13T01:16:19.423Z,89.20
2023-08-13T01:17:19.407Z,89.11
2023-08-13T01:18:19.438Z,89.20
2023-08-13T01:19:19.380Z,89.30
2023-08-13T01:20:19.483Z,89.30
2023-08-13T01:21:19.375Z,89.20
2023-08-13T01:22:19.363Z,89.11
2023-08-13T01:23:19.340Z,89.11
2023-08-13T01:24:19.390Z,88.90
2023-08-13T01:25:19.347Z,88.80
2023-08-13T01:26:19.352Z,88.80
2023-08-13T01:27:19.292Z,88.80
2023-08-13T01:28:19.274Z,88.90
2023-08-13T01:29:19.312Z,88.80
2023-08-13T01:30:19.259Z,88.90
2023-08-13T01:31:19.323Z,89.00
2023-08-13T01:32:19.318Z,89.00
2023-08-13T01:33:19.237Z,88.90
2023-08-13T01:34:19.318Z,89.00
2023-08-13T01:35:19.242Z,89.20
2023-08-13T01:36:19.197Z,89.30
2023-08-13T01:37:19.205Z,89.30
2023-08-13T01:38:19.227Z,89.30
2023-08-13T01:39:19.255Z,89.30
2023-08-13T01:40:19.184Z,89.50
2023-08-13T01:41:19.198Z,89.61
2023-08-13T01:42:19.153Z,89.50
2023-08-13T01:43:19.136Z,89.40
2023-08-13T01:44:19.148Z,89.54
2023-08-13T01:45:19.400Z,89.45
2023-08-13T01:46:19.078Z,89.40
2023-08-13T01:47:19.082Z,89.30
2023-08-13T01:48:19.052Z,89.04
2023-08-13T01:49:19.045Z,88.84
2023-08-13T01:50:19.131Z,88.75
2023-08-13T01:51:19.078Z,88.64
2023-08-13T01:52:19.002Z,88.64
2023-08-13T01:53:19.023Z,88.54
2023-08-13T01:54:19.012Z,88.54
2023-08-13T01:55:19.009Z,88.44
2023-08-13T01:56:18.981Z,88.34
2023-08-13T01:57:19.000Z,88.24
2023-08-13T01:58:18.960Z,88.20
2023-08-13T01:59:18.978Z,88.20
2023-08-13T02:00:18.919Z,88.20
2023-08-13T02:01:19.017Z,88.30
2023-08-13T02:02:18.917Z,88.30
2023-08-13T02:03:18.958Z,88.20
2023-08-13T02:04:18.889Z,88.10
2023-08-13T02:05:18.956Z,87.90
2023-08-13T02:06:18.857Z,88.00
2023-08-13T02:07:18.852Z,88.00
2023-08-13T02:08:18.885Z,87.90
2023-08-13T02:09:18.875Z,87.80
2023-08-13T02:10:18.814Z,87.80
2023-08-13T02:11:18.813Z,87.90
2023-08-13T02:12:18.910Z,88.00
2023-08-13T02:13:18.823Z,88.00
2023-08-13T02:14:18.806Z,88.20
2023-08-13T02:15:18.764Z,88.20
2023-08-13T02:16:18.796Z,88.40
2023-08-13T02:17:18.788Z,88.54
2023-08-13T02:18:18.724Z,88.54
2023-08-13T02:19:18.714Z,88.64
2023-08-13T02:20:18.770Z,88.75
2023-08-13T02:21:18.706Z,88.75
2023-08-13T02:22:18.710Z,88.75
2023-08-13T02:23:18.703Z,88.75
2023-08-13T02:24:18.685Z,88.84
2023-08-13T02:25:18.661Z,89.04
2023-08-13T02:26:18.663Z,89.25
2023-08-13T02:27:18.644Z,89.45
2023-08-13T02:28:18.661Z,89.59
2023-08-13T02:29:18.633Z,89.79
2023-08-13T02:30:18.636Z,89.89
2023-08-13T02:31:18.637Z,89.79
2023-08-13T02:32:18.630Z,89.89
2023-08-13T02:33:18.578Z,89.79
2023-08-13T02:34:18.796Z,89.89
2023-08-13T02:35:18.557Z,89.89
2023-08-13T02:36:18.548Z,90.19
2023-08-13T02:37:18.516Z,90.29
2023-08-13T02:38:18.543Z,90.49
2023-08-13T02:39:18.510Z,90.59
2023-08-13T02:40:18.552Z,90.69
2023-08-13T02:41:18.459Z,90.89
2023-08-13T02:42:18.493Z,91.09
2023-08-13T02:43:18.453Z,90.89
2023-08-13T02:44:18.432Z,90.89
2023-08-13T02:45:18.453Z,90.69
2023-08-13T02:46:18.491Z,90.69
2023-08-13T02:47:18.404Z,90.73
2023-08-13T02:48:18.426Z,90.64
2023-08-13T02:49:18.413Z,90.73
2023-08-13T02:50:18.376Z,90.73
2023-08-13T02:51:18.426Z,90.64
2023-08-13T02:52:18.416Z,90.64
2023-08-13T02:53:18.359Z,90.53
2023-08-13T02:54:18.376Z,90.64
2023-08-13T02:55:18.328Z,90.64
2023-08-13T02:56:18.346Z,90.64
2023-08-13T02:57:18.343Z,90.64
2023-08-13T02:58:18.275Z,90.53
2023-08-13T02:59:18.288Z,90.33
2023-08-13T03:00:18.253Z,90.33
2023-08-13T03:01:18.307Z,90.53
2023-08-13T03:02:18.285Z,90.73
2023-08-13T03:03:18.293Z,90.84
2023-08-13T03:04:18.270Z,90.98
2023-08-13T03:05:18.217Z,90.98
2023-08-13T03:06:18.201Z,91.08
2023-08-13T03:07:18.242Z,91.08
2023-08-13T03:08:18.173Z,91.08
2023-08-13T03:09:18.160Z,91.08
2023-08-13T03:10:18.184Z,91.08
2023-08-13T03:11:18.147Z,91.08
2023-08-13T03:12:18.128Z,91.18
2023-08-13T03:13:18.121Z,91.48
2023-08-13T03:14:18.115Z,91.48
2023-08-13T03:15:18.122Z,91.48
2023-08-13T03:16:18.137Z,91.28
2023-08-13T03:17:18.074Z,91.38
2023-08-13T03:18:18.057Z,91.28
2023-08-13T03:19:18.054Z,91.18
2023-08-13T03:20:18.052Z,91.52
2023-08-13T03:21:18.039Z,91.52
2023-08-13T03:22:18.022Z,91.13
2023-08-13T03:23:17.990Z,91.13
2023-08-13T03:24:18.021Z,91.32
2023-08-13T03:25:18.009Z,91.42
2023-08-13T03:26:17.979Z,91.42
2023-08-13T03:27:18.003Z,91.52
2023-08-13T03:28:17.951Z,91.52
2023-08-13T03:29:17.929Z,91.52
2023-08-13T03:30:17.923Z,91.52
2023-08-13T03:31:17.968Z,91.63
2023-08-13T03:32:17.949Z,91.83
2023-08-13T03:33:17.914Z,91.72
2023-08-13T03:34:17.887Z,91.52
2023-08-13T03:35:17.852Z,91.42
2023-08-13T03:36:17.861Z,91.22
2023-08-13T03:37:17.847Z,91.22
2023-08-13T03:38:17.875Z,91.22
2023-08-13T03:39:17.812Z,91.13
2023-08-13T03:40:17.821Z,91.13
2023-08-13T03:41:17.806Z,91.13
2023-08-13T03:42:17.789Z,91.22
2023-08-13T03:43:17.809Z,91.22
2023-08-13T03:44:17.789Z,91.22
2023-08-13T03:45:17.763Z,91.22
2023-08-13T03:46:17.794Z,91.22
2023-08-13T03:47:17.741Z,91.22
2023-08-13T03:48:17.757Z,91.22
2023-08-13T03:49:17.756Z,91.13
2023-08-13T03:50:17.702Z,91.13
2023-08-13T03:51:17.725Z,91.13
2023-08-13T03:52:17.687Z,91.13
2023-08-13T03:53:17.700Z,91.22
2023-08-13T03:54:17.654Z,91.13
2023-08-13T03:55:17.665Z,90.98
2023-08-13T03:56:17.627Z,91.08
2023-08-13T03:57:17.645Z,91.08
2023-08-13T03:58:17.645Z,91.08
2023-08-13T03:59:17.582Z,90.98
2023-08-13T04:00:17.586Z,90.88
2023-08-13T04:01:17.652Z,90.72
2023-08-13T04:02:17.924Z,90.52
2023-08-13T04:03:25.614Z,90.02
2023-08-13T04:04:18.664Z,90.22
2023-08-13T04:05:17.564Z,90.12
2023-08-13T04:06:17.547Z,90.12
2023-08-13T04:07:17.526Z,90.12
2023-08-13T04:08:17.510Z,90.22
2023-08-13T04:09:17.519Z,90.12
2023-08-13T04:10:17.509Z,89.82
2023-08-13T04:11:17.479Z,89.62
2023-08-13T04:12:17.482Z,89.62
2023-08-13T04:13:17.494Z,89.62
2023-08-13T04:14:17.433Z,89.82
2023-08-13T04:15:17.440Z,89.82
2023-08-13T04:16:17.469Z,90.02
2023-08-13T04:17:17.400Z,90.02
2023-08-13T04:18:17.458Z,90.02
2023-08-13T04:19:17.380Z,90.12
2023-08-13T04:20:17.366Z,90.32
2023-08-13T04:21:17.349Z,90.52
2023-08-13T04:22:17.387Z,90.37
2023-08-13T04:23:17.312Z,90.37
2023-08-13T04:24:17.338Z,90.37
2023-08-13T04:25:17.318Z,90.22
2023-08-13T04:26:17.326Z,90.17
2023-08-13T04:27:17.285Z,90.28
2023-08-13T04:28:17.324Z,90.28
2023-08-13T04:29:17.260Z,90.17
2023-08-13T04:30:17.254Z,89.98
2023-08-13T04:31:17.288Z,89.78
2023-08-13T04:32:17.235Z,89.67
2023-08-13T04:33:17.860Z,89.67
2023-08-13T04:34:17.204Z,89.67
2023-08-13T04:35:17.211Z,89.67
2023-08-13T04:36:17.202Z,89.58
2023-08-13T04:37:17.164Z,89.58
2023-08-13T04:38:17.160Z,88.67
2023-08-13T04:39:17.203Z,88.47
2023-08-13T04:40:17.145Z,88.77
2023-08-13T04:41:17.142Z,88.67
2023-08-13T04:42:17.396Z,88.17
2023-08-13T04:43:17.116Z,88.07
2023-08-13T04:44:17.084Z,88.07
2023-08-13T04:45:17.189Z,87.77
2023-08-13T04:46:17.087Z,87.66
2023-08-13T04:47:17.061Z,87.46
2023-08-13T04:48:17.060Z,87.26
2023-08-13T04:49:17.032Z,87.22
2023-08-13T04:50:17.056Z,86.82
2023-08-13T04:51:17.036Z,86.52
2023-08-13T04:52:17.233Z,86.52
2023-08-13T04:53:17.033Z,86.32
2023-08-13T04:54:16.968Z,86.32
2023-08-13T04:55:17.025Z,86.22
2023-08-13T04:56:16.983Z,86.22
2023-08-13T04:57:16.975Z,86.42
2023-08-13T04:58:16.969Z,86.82
2023-08-13T04:59:16.950Z,86.88
2023-08-13T05:00:16.909Z,86.78
2023-08-13T05:01:17.045Z,86.68
2023-08-13T05:02:16.881Z,86.78
2023-08-13T05:03:16.876Z,86.78
2023-08-13T05:04:16.910Z,86.88
2023-08-13T05:05:16.895Z,86.88
2023-08-13T05:06:16.866Z,86.98
2023-08-13T05:07:16.843Z,86.78
2023-08-13T05:08:16.829Z,86.78
2023-08-13T05:09:16.810Z,86.68
2023-08-13T05:10:16.832Z,86.64
2023-08-13T05:11:16.839Z,86.64
2023-08-13T05:12:17.184Z,86.54
2023-08-13T05:13:16.777Z,86.44
2023-08-13T05:14:16.754Z,86.24
2023-08-13T05:15:16.768Z,86.24
2023-08-13T05:16:16.826Z,86.24
2023-08-13T05:17:16.756Z,86.33
2023-08-13T05:18:16.716Z,86.10
2023-08-13T05:19:16.686Z,85.99
2023-08-13T05:20:16.699Z,85.99
2023-08-13T05:21:16.683Z,85.55
2023-08-13T05:22:16.885Z,85.25
2023-08-13T05:23:16.651Z,84.95
2023-08-13T05:24:16.645Z,84.61
2023-08-13T05:25:16.654Z,84.21
2023-08-13T05:26:16.614Z,84.01
2023-08-13T05:27:16.699Z,83.71
2023-08-13T05:28:16.638Z,83.81
2023-08-13T05:29:16.592Z,83.47
2023-08-13T05:30:16.598Z,83.37
2023-08-13T05:31:16.577Z,82.97
2023-08-13T05:32:16.820Z,82.67
2023-08-13T05:33:16.577Z,82.67
2023-08-13T05:34:16.533Z,82.87
2023-08-13T05:35:16.533Z,83.07
2023-08-13T05:36:16.506Z,83.07
2023-08-13T05:37:16.539Z,82.97
2023-08-13T05:38:16.480Z,82.77
2023-08-13T05:39:16.491Z,82.87
2023-08-13T05:40:16.469Z,82.91
2023-08-13T05:41:16.445Z,83.11
2023-08-13T05:42:16.654Z,83.17
2023-08-13T05:43:16.446Z,83.17
2023-08-13T05:44:16.430Z,82.97
2023-08-13T05:45:16.437Z,82.87
2023-08-13T05:46:16.416Z,82.57
2023-08-13T05:47:16.397Z,82.13
2023-08-13T05:48:16.434Z,82.23
2023-08-13T05:49:16.373Z,82.03
2023-08-13T05:50:16.358Z,81.93
2023-08-13T05:51:16.361Z,81.83
2023-08-13T05:52:16.531Z,82.13
2023-08-13T05:53:16.352Z,81.93
2023-08-13T05:54:16.359Z,82.13
2023-08-13T05:55:16.288Z,82.03
2023-08-13T05:56:16.308Z,81.83
2023-08-13T05:57:16.277Z,81.73
2023-08-13T05:58:16.306Z,81.63
2023-08-13T05:59:16.254Z,81.73
2023-08-13T06:00:16.330Z,81.83
2023-08-13T06:01:16.278Z,81.73
2023-08-13T06:02:16.426Z,81.63
2023-08-13T06:03:16.282Z,81.63
2023-08-13T06:04:16.202Z,81.83
2023-08-13T06:05:16.207Z,81.43
2023-08-13T06:06:16.196Z,81.53
2023-08-13T06:07:16.162Z,81.33
2023-08-13T06:08:16.144Z,81.43
2023-08-13T06:09:16.139Z,81.43
2023-08-13T06:10:16.131Z,81.23
2023-08-13T06:11:16.184Z,81.53
2023-08-13T06:12:16.271Z,81.63
2023-08-13T06:13:16.143Z,81.53
2023-08-13T06:14:16.147Z,81.53
2023-08-13T06:15:16.063Z,81.73
2023-08-13T06:16:16.081Z,81.73
2023-08-13T06:17:16.145Z,81.69
2023-08-13T06:18:16.055Z,81.79
2023-08-13T06:19:16.025Z,81.59
2023-08-13T06:20:16.031Z,81.39
2023-08-13T06:21:16.027Z,81.29
2023-08-13T06:22:16.380Z,80.99
2023-08-13T06:23:16.006Z,80.55
2023-08-13T06:24:16.008Z,79.85
2023-08-13T06:25:15.969Z,79.96
2023-08-13T06:26:15.957Z,79.91
2023-08-13T06:27:15.950Z,79.52
2023-08-13T06:28:15.952Z,79.17
2023-08-13T06:29:15.956Z,78.48
2023-08-13T06:30:15.895Z,78.14
2023-08-13T06:31:28.906Z,77.61
2023-08-13T06:32:16.894Z,76.61
2023-08-13T06:33:15.885Z,76.07
2023-08-13T06:34:15.906Z,75.84
2023-08-13T06:35:15.833Z,75.64
2023-08-13T06:36:15.867Z,74.80
2023-08-13T06:37:15.832Z,74.54
2023-08-13T06:38:15.821Z,74.74
2023-08-13T06:39:15.793Z,74.84
2023-08-13T06:40:15.819Z,74.21
2023-08-13T06:41:15.801Z,74.30
2023-08-13T06:42:16.126Z,74.30
2023-08-13T06:43:15.768Z,73.91
2023-08-13T06:44:15.736Z,73.71
2023-08-13T06:45:15.758Z,73.47
2023-08-13T06:46:15.800Z,73.47
2023-08-13T06:47:15.723Z,73.28
2023-08-13T06:48:15.710Z,72.94
2023-08-13T06:49:15.704Z,72.58
2023-08-13T06:50:15.694Z,72.74
2023-08-13T06:51:15.733Z,72.21
2023-08-13T06:52:15.879Z,71.72
2023-08-13T06:53:15.644Z,71.48
2023-08-13T06:54:15.677Z,71.72
2023-08-13T06:55:15.615Z,71.38
2023-08-13T06:56:15.613Z,71.38
2023-08-13T06:57:15.638Z,71.48
2023-08-13T06:58:15.623Z,70.75
2023-08-13T06:59:15.600Z,69.79
2023-08-13T07:00:15.578Z,68.07
2023-08-13T07:01:15.550Z,67.74
2023-08-13T07:02:15.714Z,67.31
2023-08-13T07:03:15.556Z,65.66
2023-08-13T07:04:15.550Z,64.61
2023-08-13T07:05:15.627Z,64.21
2023-08-13T07:06:15.513Z,62.99
2023-08-13T07:07:15.488Z,62.84
2023-08-13T07:08:15.495Z,61.13
2023-08-13T07:09:15.472Z,60.28
2023-08-13T07:10:15.490Z,59.23
2023-08-13T07:11:15.442Z,58.12
2023-08-13T07:12:15.655Z,57.48
2023-08-13T07:13:15.470Z,56.27
2023-08-13T07:14:15.438Z,55.26
2023-08-13T07:15:15.415Z,54.76
2023-08-13T07:16:15.463Z,56.16
2023-08-13T07:17:15.430Z,55.80
2023-08-13T07:18:15.417Z,56.81
2023-08-13T07:19:15.383Z,56.32
2023-08-13T07:20:15.785Z,56.87
2023-08-13T07:21:15.329Z,58.40
2023-08-13T07:22:15.615Z,59.22
2023-08-13T07:23:15.300Z,60.07
2023-08-13T07:24:15.371Z,61.08
2023-08-13T07:25:15.290Z,61.58
2023-08-13T07:26:15.296Z,61.78
2023-08-13T07:27:15.286Z,60.08
2023-08-13T07:28:15.270Z,58.54
2023-08-13T07:29:15.264Z,56.69
2023-08-13T07:30:15.263Z,55.65
2023-08-13T07:31:15.241Z,54.05
2023-08-13T07:32:15.602Z,53.48
2023-08-13T07:33:15.206Z,51.49
2023-08-13T07:34:15.227Z,51.07
2023-08-13T07:35:15.221Z,51.22
2023-08-13T07:36:15.170Z,50.34
2023-08-13T07:37:15.195Z,50.61
2023-08-13T07:38:15.143Z,50.32
2023-08-13T07:39:15.143Z,50.42
2023-08-13T07:40:15.129Z,49.80
2023-08-13T07:41:15.155Z,49.85
2023-08-13T07:42:15.333Z,47.56
2023-08-13T07:43:15.106Z,47.44
2023-08-13T07:44:15.124Z,46.22
2023-08-13T07:45:15.164Z,46.31
2023-08-13T07:46:15.165Z,45.54
2023-08-13T07:47:15.102Z,45.73
2023-08-13T07:48:15.069Z,45.81
2023-08-13T07:49:15.067Z,44.93
2023-08-13T07:50:15.028Z,45.20
2023-08-13T07:51:15.034Z,44.32
2023-08-13T07:52:15.191Z,44.37
2023-08-13T07:53:15.058Z,45.70
2023-08-13T07:54:15.175Z,47.11
2023-08-13T07:55:14.993Z,48.04
2023-08-13T07:56:15.088Z,48.04
2023-08-13T07:57:14.977Z,48.26
2023-08-13T07:58:14.985Z,48.68
2023-08-13T07:59:14.919Z,48.77
2023-08-13T08:00:14.914Z,47.28
2023-08-13T08:01:14.943Z,46.86
2023-08-13T08:02:15.142Z,45.97
2023-08-13T08:03:14.931Z,45.84
2023-08-13T08:04:14.899Z,45.55
2023-08-13T08:05:14.888Z,44.74
2023-08-13T08:06:14.901Z,44.04
2023-08-13T08:07:14.869Z,43.85
2023-08-13T08:08:14.878Z,44.38
2023-08-13T08:09:14.850Z,45.08
2023-08-13T08:10:14.827Z,44.23
2023-08-13T08:11:14.813Z,44.38
2023-08-13T08:12:15.053Z,43.08
2023-08-13T08:13:14.798Z,42.89
2023-08-13T08:14:14.815Z,43.08
2023-08-13T08:15:14.776Z,44.16
2023-08-13T08:16:14.823Z,44.24
2023-08-13T08:17:14.760Z,43.26
2023-08-13T08:18:14.750Z,43.04
2023-08-13T08:19:14.741Z,42.11
2023-08-13T08:20:14.789Z,42.64
2023-08-13T08:21:14.722Z,43.24
2023-08-13T08:22:14.952Z,43.05
2023-08-13T08:23:14.721Z,42.91
2023-08-13T08:24:14.668Z,44.03
2023-08-13T08:25:14.665Z,44.37
2023-08-13T08:26:14.700Z,45.37
2023-08-13T08:27:14.669Z,45.68
2023-08-13T08:28:14.701Z,45.98
2023-08-13T08:29:14.641Z,46.69
2023-08-13T08:30:14.663Z,46.59
2023-08-13T08:31:14.672Z,46.59
2023-08-13T08:32:14.926Z,46.51
2023-08-13T08:33:14.592Z,45.95
2023-08-13T08:34:14.602Z,47.03
2023-08-13T08:35:14.562Z,47.13
2023-08-13T08:36:14.559Z,46.14
2023-08-13T08:37:14.538Z,44.33
2023-08-13T08:38:14.550Z,44.62
2023-08-13T08:39:14.532Z,43.33
2023-08-13T08:40:14.570Z,42.76
2023-08-13T08:41:14.549Z,43.49
2023-08-13T08:42:14.780Z,44.01
2023-08-13T08:43:14.500Z,44.52
2023-08-13T08:44:14.480Z,44.12
2023-08-13T08:45:14.448Z,42.94
2023-08-13T08:46:14.526Z,43.12
2023-08-13T08:47:14.533Z,43.10
2023-08-13T08:48:14.452Z,43.35
2023-08-13T08:49:14.447Z,43.04
2023-08-13T08:50:14.429Z,42.31
2023-08-13T08:51:14.448Z,42.82
2023-08-13T08:52:14.637Z,42.25
2023-08-13T08:53:14.416Z,43.45
2023-08-13T08:54:14.385Z,43.76
2023-08-13T08:55:14.355Z,44.47
2023-08-13T08:56:14.382Z,44.08
2023-08-13T08:57:14.336Z,44.67
2023-08-13T08:58:14.345Z,44.37
2023-08-13T08:59:14.304Z,44.74
2023-08-13T09:00:14.328Z,44.84
2023-08-13T09:01:14.335Z,44.84
2023-08-13T09:02:14.705Z,44.73
2023-08-13T09:03:14.390Z,44.23
2023-08-13T09:04:14.301Z,45.12
2023-08-13T09:05:14.318Z,44.53
2023-08-13T09:06:22.900Z,44.04
2023-08-13T09:07:15.234Z,44.23
2023-08-13T09:08:16.716Z,44.43
2023-08-13T09:09:14.210Z,44.62
2023-08-13T09:10:14.216Z,44.51
2023-08-13T09:11:14.228Z,44.12
2023-08-13T09:12:14.590Z,44.51
2023-08-13T09:13:14.205Z,44.48
2023-08-13T09:14:14.179Z,43.07
2023-08-13T09:15:14.169Z,42.27
2023-08-13T09:16:14.238Z,42.36
2023-08-13T09:17:14.577Z,43.05
2023-08-13T09:18:14.118Z,42.93
2023-08-13T09:19:14.525Z,42.93
2023-08-13T09:20:14.137Z,42.93
2023-08-13T09:21:14.100Z,42.95
2023-08-13T09:22:14.352Z,42.83
2023-08-13T09:23:14.082Z,43.24
2023-08-13T09:24:16.305Z,43.27
2023-08-13T09:25:14.060Z,43.66
2023-08-13T09:26:14.050Z,44.24
2023-08-13T09:27:14.320Z,44.05
2023-08-13T09:28:14.013Z,43.58
2023-08-13T09:29:14.033Z,43.88
2023-08-13T09:30:14.018Z,44.29
2023-08-13T09:31:14.073Z,44.17
2023-08-13T09:32:13.966Z,44.46
2023-08-13T09:33:14.029Z,44.85
2023-08-13T09:34:13.948Z,44.88
2023-08-13T09:35:13.938Z,44.56
2023-08-13T09:36:16.297Z,44.76
2023-08-13T09:37:14.349Z,44.19
2023-08-13T09:38:13.946Z,44.48
2023-08-13T09:39:13.949Z,44.78
2023-08-13T09:40:13.954Z,44.07
2023-08-13T09:41:13.886Z,43.95
2023-08-13T09:42:15.794Z,43.54
2023-08-13T09:43:13.861Z,43.01
2023-08-13T09:44:13.861Z,42.19
2023-08-13T09:45:13.853Z,41.36
2023-08-13T09:46:13.942Z,40.86
2023-08-13T09:47:14.085Z,40.72
2023-08-13T09:48:13.831Z,39.26
2023-08-13T09:49:13.819Z,39.51
2023-08-13T09:50:13.824Z,38.34
2023-08-13T09:51:17.286Z,39.80
2023-08-13T09:52:15.029Z,39.03
2023-08-13T09:53:13.760Z,38.34
2023-08-13T09:54:13.754Z,38.67
2023-08-13T09:55:13.807Z,39.18
2023-08-13T09:56:13.761Z,38.96
2023-08-13T09:57:13.736Z,38.36
2023-08-13T09:58:13.764Z,38.44
2023-08-13T09:59:13.722Z,39.03
2023-08-13T10:00:13.766Z,38.62
2023-08-13T10:01:13.725Z,38.42
2023-08-13T10:02:14.060Z,38.11
2023-08-13T10:03:15.396Z,37.82
2023-08-13T10:04:13.705Z,37.93
2023-08-13T10:05:13.681Z,38.75
2023-08-13T10:06:13.630Z,39.04
2023-08-13T10:07:13.640Z,39.16
2023-08-13T10:08:13.613Z,39.34
2023-08-13T10:09:13.611Z,39.04
2023-08-13T10:10:13.823Z,38.95
2023-08-13T10:11:13.576Z,39.12
2023-08-13T10:12:13.971Z,38.73
2023-08-13T10:13:13.557Z,38.64
2023-08-13T10:14:13.569Z,38.81
2023-08-13T10:15:13.555Z,38.44
2023-08-13T10:16:13.658Z,38.34
2023-08-13T10:17:13.524Z,39.04
2023-08-13T10:18:13.543Z,39.76
2023-08-13T10:19:13.510Z,39.96
2023-08-13T10:20:13.528Z,39.96
2023-08-13T10:21:13.514Z,39.96
2023-08-13T10:22:15.793Z,40.41
2023-08-13T10:23:13.512Z,40.99
2023-08-13T10:24:13.479Z,41.41
2023-08-13T10:25:13.483Z,41.38
2023-08-13T10:26:13.461Z,41.41
2023-08-13T10:27:13.469Z,41.28
2023-08-13T10:28:13.445Z,42.42
2023-08-13T10:29:13.450Z,43.42
2023-08-13T10:30:13.457Z,43.81
2023-08-13T10:31:13.425Z,42.83
2023-08-13T10:32:13.676Z,42.21
2023-08-13T10:33:13.434Z,41.41
2023-08-13T10:34:13.361Z,41.11
2023-08-13T10:35:13.367Z,41.48
2023-08-13T10:36:13.329Z,41.48
2023-08-13T10:37:13.324Z,40.58
2023-08-13T10:38:13.386Z,40.97
2023-08-13T10:39:13.307Z,40.56
2023-08-13T10:40:13.301Z,39.55
2023-08-13T10:41:13.322Z,38.13
2023-08-13T10:42:13.699Z,38.29
2023-08-13T10:43:13.276Z,37.41
2023-08-13T10:44:13.296Z,38.71
2023-08-13T10:45:13.285Z,38.81
2023-08-13T10:46:13.329Z,38.83
2023-08-13T10:47:13.248Z,38.89
2023-08-13T10:48:13.261Z,39.61
2023-08-13T10:49:13.228Z,40.11
2023-08-13T10:50:13.203Z,40.50
2023-08-13T10:51:13.264Z,39.47
2023-08-13T10:52:13.563Z,40.21
2023-08-13T10:53:13.212Z,41.33
2023-08-13T10:54:13.188Z,41.31
2023-08-13T10:55:13.191Z,41.31
2023-08-13T10:56:13.195Z,40.41
2023-08-13T10:57:13.158Z,39.86
2023-08-13T10:58:13.144Z,39.34
2023-08-13T10:59:13.153Z,38.81
2023-08-13T11:00:13.137Z,38.31
2023-08-13T11:01:13.186Z,36.93
2023-08-13T11:02:13.538Z,36.94
2023-08-13T11:03:13.155Z,37.84
2023-08-13T11:04:13.085Z,38.77
2023-08-13T11:05:13.069Z,39.82
2023-08-13T11:06:13.102Z,41.15
2023-08-13T11:07:13.037Z,41.78
2023-08-13T11:08:15.240Z,41.70
2023-08-13T11:09:13.049Z,42.48
2023-08-13T11:10:13.023Z,40.74
2023-08-13T11:11:13.022Z,39.82
2023-08-13T11:12:13.363Z,39.29
2023-08-13T11:13:12.985Z,38.96
2023-08-13T11:14:13.042Z,38.15
2023-08-13T11:15:12.995Z,38.17
2023-08-13T11:16:12.994Z,38.26
2023-08-13T11:17:12.976Z,38.83
2023-08-13T11:18:12.953Z,37.54
2023-08-13T11:19:12.957Z,37.34
2023-08-13T11:20:12.978Z,37.06
2023-08-13T11:21:12.942Z,37.06
2023-08-13T11:22:13.250Z,38.09
2023-08-13T11:23:12.882Z,38.26
2023-08-13T11:24:12.897Z,38.84
2023-08-13T11:25:12.867Z,38.61
2023-08-13T11:26:12.930Z,37.81
2023-08-13T11:27:12.870Z,37.79
2023-08-13T11:28:12.874Z,37.48
2023-08-13T11:29:12.842Z,37.60
2023-08-13T11:30:12.876Z,37.89
2023-08-13T11:31:12.827Z,37.87
2023-08-13T11:32:13.240Z,37.77
2023-08-13T11:33:12.879Z,37.97
2023-08-13T11:34:12.801Z,37.68
2023-08-13T11:35:12.777Z,37.84
2023-08-13T11:36:12.800Z,36.07
2023-08-13T11:37:12.841Z,36.18
2023-08-13T11:38:12.741Z,36.24
2023-08-13T11:39:12.749Z,36.05
2023-08-13T11:40:12.726Z,35.96
2023-08-13T11:41:12.737Z,36.46
2023-08-13T11:42:12.780Z,38.46
2023-08-13T11:43:12.751Z,38.09
2023-08-13T11:44:12.733Z,37.99
2023-08-13T11:45:12.698Z,37.52
2023-08-13T11:46:12.707Z,36.72
2023-08-13T11:47:12.720Z,36.53
2023-08-13T11:48:12.890Z,36.41
2023-08-13T11:49:12.667Z,36.22
2023-08-13T11:50:12.692Z,35.75
2023-08-13T11:51:19.789Z,35.86
2023-08-13T11:52:13.830Z,36.66
2023-08-13T11:53:12.603Z,37.05
2023-08-13T11:54:12.671Z,36.76
2023-08-13T11:55:12.620Z,36.29
2023-08-13T11:56:12.578Z,36.90
2023-08-13T11:57:12.589Z,36.23
2023-08-13T11:58:12.567Z,36.33
2023-08-13T11:59:12.614Z,36.05
2023-08-13T12:00:12.538Z,36.26
2023-08-13T12:01:12.608Z,36.46
2023-08-13T12:02:12.832Z,36.83
2023-08-13T12:03:12.543Z,36.91
2023-08-13T12:04:12.610Z,36.82
2023-08-13T12:05:12.491Z,37.01
2023-08-13T12:06:12.541Z,37.21
2023-08-13T12:07:12.500Z,37.14
2023-08-13T12:08:12.474Z,37.55
2023-08-13T12:09:12.465Z,37.65
2023-08-13T12:10:12.452Z,37.67
2023-08-13T12:11:12.439Z,38.04
2023-08-13T12:12:12.476Z,37.87
2023-08-13T12:13:12.433Z,38.16
2023-08-13T12:14:12.431Z,38.26
2023-08-13T12:15:12.460Z,38.96
2023-08-13T12:16:12.433Z,38.75
2023-08-13T12:17:12.366Z,38.57
2023-08-13T12:18:12.361Z,38.78
2023-08-13T12:19:12.390Z,39.31
2023-08-13T12:20:12.383Z,40.21
2023-08-13T12:21:12.361Z,40.61
2023-08-13T12:22:12.332Z,40.68
2023-08-13T12:23:12.312Z,40.48
2023-08-13T12:24:12.303Z,40.09
2023-08-13T12:25:12.350Z,40.01
2023-08-13T12:26:12.303Z,40.90
2023-08-13T12:27:12.279Z,40.01
2023-08-13T12:28:12.261Z,40.31
2023-08-13T12:29:12.274Z,40.51
2023-08-13T12:30:12.238Z,40.33
2023-08-13T12:31:12.294Z,40.16
2023-08-13T12:32:12.228Z,40.23
2023-08-13T12:33:12.237Z,39.82
2023-08-13T12:34:12.253Z,39.53
2023-08-13T12:35:12.219Z,39.82
2023-08-13T12:36:12.191Z,39.92
2023-08-13T12:37:12.211Z,39.84
2023-08-13T12:38:12.173Z,40.33
2023-08-13T12:39:12.190Z,40.53
2023-08-13T12:40:12.133Z,40.62
2023-08-13T12:41:12.177Z,40.80
2023-08-13T12:42:12.115Z,40.41
2023-08-13T12:43:12.138Z,40.51
2023-08-13T12:44:12.105Z,40.43
2023-08-13T12:45:12.096Z,41.02
2023-08-13T12:46:12.133Z,40.62
2023-08-13T12:47:12.127Z,40.64
2023-08-13T12:48:12.049Z,41.03
2023-08-13T12:49:12.041Z,41.24
2023-08-13T12:50:12.081Z,41.53
2023-08-13T12:51:12.018Z,41.64
2023-08-13T12:52:12.025Z,41.56